Time;durP1;ratioP1;P1;durP2;ratioP2;P2;SDS_P1;SDS_P2;PMS_P1;PMS_P2;Temp;Humidity;BMP_temperature;BMP_pressure;BME280_temperature;BME280_humidity;BME280_pressure;Samples;Min_cycle;Max_cycle;Signal;HPM_P1;HPM_P2
2023/02/18 00:01:29;;;;;;;12.27;6.40;;;;;;;13.52;59.94;99958.75;4488632;31;20114;-91
2023/02/18 00:03:54;;;;;;;12.65;5.95;;;;;;;13.40;59.93;99958.38;4489173;31;20504;-92
2023/02/18 00:06:25;;;;;;;11.48;5.35;;;;;;;13.42;59.93;99952.16;4476401;31;20108;-91
2023/02/18 00:08:50;;;;;;;10.73;5.62;;;;;;;13.37;59.93;99961.13;4492736;31;20100;-91
2023/02/18 00:11:16;;;;;;;12.55;6.35;;;;;;;13.45;59.93;99961.66;4497755;31;20076;-91
2023/02/18 00:13:42;;;;;;;9.38;5.37;;;;;;;13.55;59.93;99946.47;4489048;31;20080;-93
2023/02/18 00:16:09;;;;;;;9.98;5.35;;;;;;;13.58;59.94;99941.09;4475136;31;20145;-90
2023/02/18 00:18:35;;;;;;;8.43;4.85;;;;;;;13.52;59.94;99952.66;4501698;31;20100;-88
2023/02/18 00:21:03;;;;;;;8.57;4.82;;;;;;;13.58;59.94;99939.34;4488318;31;20153;-90
2023/02/18 00:23:28;;;;;;;10.40;5.00;;;;;;;13.52;59.94;99929.12;4488400;31;20092;-88
2023/02/18 00:26:01;;;;;;;10.15;5.22;;;;;;;13.51;59.94;99936.12;4488330;31;20092;-89
2023/02/18 00:28:27;;;;;;;9.15;5.32;;;;;;;13.59;59.95;99943.66;4475125;31;20104;-90
2023/02/18 00:30:52;;;;;;;7.43;4.62;;;;;;;13.60;59.94;99926.19;4475327;31;20104;-91
2023/02/18 00:33:18;;;;;;;7.75;4.62;;;;;;;13.63;59.94;99932.13;4502446;31;20088;-89
2023/02/18 00:35:43;;;;;;;7.68;3.92;;;;;;;13.85;59.95;99936.47;4487984;31;20156;-91
2023/02/18 00:38:08;;;;;;;6.68;3.50;;;;;;;13.80;59.95;99931.44;4474994;31;20148;-89
2023/02/18 00:40:37;;;;;;;7.53;3.67;;;;;;;13.67;59.94;99925.84;4475167;31;20088;-90
2023/02/18 00:43:02;;;;;;;6.22;3.03;;;;;;;13.80;59.95;99928.81;4475320;31;20099;-88
2023/02/18 00:45:28;;;;;;;7.78;3.47;;;;;;;13.89;59.96;99914.50;4487995;31;20111;-89
2023/02/18 00:47:53;;;;;;;4.95;2.97;;;;;;;13.91;59.96;99913.50;4488168;31;20122;-92
2023/02/18 00:50:19;;;;;;;4.47;2.20;;;;;;;13.81;59.95;99913.06;4474789;31;20092;-90
2023/02/18 00:52:44;;;;;;;4.55;2.37;;;;;;;13.99;59.96;99916.66;4474582;31;20099;-90
2023/02/18 00:55:09;;;;;;;3.97;2.62;;;;;;;13.96;59.96;99919.41;4500798;31;20092;-89
2023/02/18 00:57:35;;;;;;;4.65;2.15;;;;;;;14.05;59.96;99921.62;4474692;31;20524;-93
2023/02/18 01:00:00;;;;;;;4.53;2.05;;;;;;;14.12;59.97;99911.72;4474693;31;20088;-89
2023/02/18 01:02:26;;;;;;;4.07;2.25;;;;;;;14.27;59.98;99911.06;4488283;31;20117;-91
2023/02/18 01:04:51;;;;;;;4.45;2.53;;;;;;;14.37;59.98;99908.87;4487973;31;20126;-90
2023/02/18 01:07:17;;;;;;;5.87;2.80;;;;;;;14.34;59.98;99914.25;4488013;31;20136;-90
2023/02/18 01:09:42;;;;;;;5.03;2.22;;;;;;;14.45;59.99;99905.97;4474494;31;20092;-89
2023/02/18 01:12:07;;;;;;;4.53;2.72;;;;;;;14.43;59.98;99906.88;4474716;31;20460;-90
2023/02/18 01:14:33;;;;;;;5.07;2.58;;;;;;;14.31;59.97;99890.81;4487067;31;20471;-90
2023/02/18 01:16:58;;;;;;;8.77;3.05;;;;;;;14.33;59.98;99909.94;4487985;31;20140;-89
2023/02/18 01:19:24;;;;;;;5.37;2.87;;;;;;;14.39;59.97;99920.97;4500640;31;20119;-89
2023/02/18 01:21:49;;;;;;;5.78;2.90;;;;;;;14.31;59.97;99898.69;4501368;31;20080;-91
2023/02/18 01:24:15;;;;;;;4.25;2.78;;;;;;;14.33;59.98;99897.69;4488025;31;20215;-91
2023/02/18 01:26:40;;;;;;;6.30;3.35;;;;;;;14.40;59.99;99893.00;4476195;31;20095;-89
2023/02/18 01:29:05;;;;;;;7.07;3.53;;;;;;;14.58;59.99;99897.44;4476365;31;20103;-89
2023/02/18 01:31:31;;;;;;;6.65;3.37;;;;;;;14.49;59.99;99878.69;4483664;31;20080;-92
2023/02/18 01:33:56;;;;;;;5.80;3.25;;;;;;;14.30;59.97;99876.88;4478349;31;20173;-92
2023/02/18 01:36:22;;;;;;;6.10;3.35;;;;;;;14.41;59.99;99882.47;4476063;31;20096;-92
2023/02/18 01:38:47;;;;;;;5.72;2.85;;;;;;;14.35;59.99;99882.75;4475748;31;20060;-90
2023/02/18 01:41:15;;;;;;;6.37;2.80;;;;;;;14.46;59.98;99889.31;4488608;31;20166;-89
2023/02/18 01:43:44;;;;;;;6.07;3.25;;;;;;;14.43;59.98;99888.53;4501044;31;20151;-90
2023/02/18 01:46:16;;;;;;;5.65;2.95;;;;;;;14.40;59.99;99882.53;4500912;31;20108;-89
2023/02/18 01:49:08;;;;;;;5.53;2.78;;;;;;;14.29;59.98;99882.19;4488111;31;20092;-92
2023/02/18 01:51:36;;;;;;;6.20;2.75;;;;;;;14.28;59.98;99876.09;4484744;31;20092;-87
2023/02/18 01:54:11;;;;;;;3.17;1.83;;;;;;;14.23;59.97;99885.09;4488765;31;20133;-88
2023/02/18 01:56:37;;;;;;;2.75;1.62;;;;;;;14.20;59.97;99864.28;4488744;31;20108;-90
2023/02/18 01:59:15;;;;;;;4.35;1.45;;;;;;;14.34;59.98;99875.81;4501229;31;20110;-89
2023/02/18 02:01:41;;;;;;;5.00;1.15;;;;;;;14.40;59.99;99872.91;4489304;31;20122;-90
2023/02/18 02:04:07;;;;;;;4.00;0.80;;;;;;;14.64;59.99;99862.25;4488025;31;20131;-91
2023/02/18 02:06:32;;;;;;;1.25;0.43;;;;;;;14.75;60.00;99865.25;4474495;31;20409;-89
2023/02/18 02:08:58;;;;;;;0.55;0.50;;;;;;;14.85;60.00;99871.72;4487830;31;20163;-90
2023/02/18 02:11:24;;;;;;;0.68;0.40;;;;;;;14.89;60.00;99868.03;4474651;31;20096;-90
2023/02/18 02:14:07;;;;;;;0.62;0.30;;;;;;;15.14;60.02;99866.84;4500917;31;20117;-90
2023/02/18 02:16:41;;;;;;;0.30;0.20;;;;;;;15.22;60.02;99868.19;4501570;31;20112;-90
2023/02/18 02:19:34;;;;;;;1.55;0.40;;;;;;;15.32;60.03;99853.69;4487960;31;20084;-89
2023/02/18 02:22:18;;;;;;;0.43;0.28;;;;;;;15.52;60.04;99860.56;4501600;31;20102;-90
2023/02/18 02:24:55;;;;;;;1.05;0.45;;;;;;;15.55;60.04;99851.69;4501671;31;20108;-92
2023/02/18 02:27:47;;;;;;;1.73;0.50;;;;;;;15.68;60.05;99880.81;4476652;31;20122;-88
2023/02/18 02:30:18;;;;;;;2.55;0.45;;;;;;;15.73;60.05;99849.94;4492827;31;20225;-89
2023/02/18 02:33:01;;;;;;;2.17;0.30;;;;;;;15.76;60.05;99873.38;4503199;31;20083;-90
2023/02/18 02:35:33;;;;;;;1.10;0.35;;;;;;;15.71;60.05;99857.03;4491472;31;20126;-89
2023/02/18 02:38:11;;;;;;;1.45;0.75;;;;;;;15.69;60.05;99846.63;4490915;31;20180;-89
2023/02/18 02:40:40;;;;;;;2.37;0.50;;;;;;;15.60;60.04;99857.56;4491617;31;20494;-90
2023/02/18 02:43:10;;;;;;;0.40;0.25;;;;;;;15.58;60.04;99846.28;4505261;31;20072;-90
2023/02/18 02:45:44;;;;;;;1.20;0.30;;;;;;;15.59;60.04;99842.75;4490205;31;20116;-89
2023/02/18 02:48:29;;;;;;;0.50;0.40;;;;;;;15.60;60.04;99847.94;4503826;31;20146;-91
2023/02/18 02:51:17;;;;;;;0.73;0.45;;;;;;;15.53;60.03;99843.03;4494176;31;20092;-91
2023/02/18 02:53:43;;;;;;;0.75;0.30;;;;;;;15.75;60.05;99850.69;4513902;31;20075;-92
2023/02/18 02:56:20;;;;;;;0.57;0.30;;;;;;;15.77;60.05;99846.22;4491327;31;20373;-95
2023/02/18 02:58:50;;;;;;;0.50;0.43;;;;;;;15.62;60.04;99853.97;4477100;31;20103;-93
2023/02/18 03:01:16;;;;;;;;;;;;;;;15.63;60.05;99849.56;4477789;31;20172;-92
2023/02/18 03:03:50;;;;;;;1.23;0.30;;;;;;;15.70;60.05;99857.97;4503419;31;20006;-93
2023/02/18 03:07:01;;;;;;;0.60;0.20;;;;;;;15.51;60.04;99845.75;4504519;31;20172;-93
2023/02/18 03:09:43;;;;;;;0.37;0.30;;;;;;;15.47;60.03;99859.09;4413700;32;20184;-93
2023/02/18 03:12:16;;;;;;;1.33;0.37;;;;;;;15.51;60.04;99861.50;4488639;31;20111;-90
2023/02/18 03:15:23;;;;;;;1.85;0.28;;;;;;;15.30;60.02;99850.28;4490757;31;20106;-93
2023/02/18 03:18:00;;;;;;;1.23;0.43;;;;;;;15.42;60.04;99869.84;4459803;31;20502;-92
2023/02/18 03:20:33;;;;;;;1.15;0.35;;;;;;;15.62;60.04;99876.75;4478791;31;20084;-93
2023/02/18 03:22:59;;;;;;;0.50;0.40;;;;;;;15.65;60.05;99879.19;4477066;31;20096;-95
2023/02/18 03:25:24;;;;;;;0.60;0.35;;;;;;;15.44;60.03;99880.25;4476967;31;20130;-92
2023/02/18 03:27:52;;;;;;;0.50;0.35;;;;;;;15.33;60.03;99876.38;4476201;31;20142;-94
2023/02/18 03:30:51;;;;;;;0.75;0.45;;;;;;;15.41;60.04;99883.03;4475946;31;20518;-92
2023/02/18 03:33:19;;;;;;;0.90;0.40;;;;;;;15.46;60.03;99886.25;4474542;31;20104;-90
2023/02/18 03:35:44;;;;;;;0.70;0.40;;;;;;;15.46;60.03;99879.25;4476032;31;20496;-90
2023/02/18 03:38:30;;;;;;;0.30;0.30;;;;;;;15.48;60.04;99887.88;4474747;31;20159;-89
2023/02/18 03:40:56;;;;;;;5.87;0.90;;;;;;;15.52;60.04;99891.19;4488727;31;20147;-91
2023/02/18 03:43:22;;;;;;;0.47;0.40;;;;;;;15.67;60.05;99866.00;4475344;31;20496;-92
2023/02/18 03:45:47;;;;;;;2.05;0.65;;;;;;;15.53;60.04;99887.66;4475224;31;20116;-93
2023/02/18 03:48:12;;;;;;;0.75;0.50;;;;;;;15.48;60.04;99895.75;4475304;31;20152;-91
2023/02/18 03:50:38;;;;;;;2.83;0.60;;;;;;;15.29;60.03;99906.28;4475313;31;20126;-93
2023/02/18 03:53:03;;;;;;;3.12;0.60;;;;;;;15.10;60.02;99894.16;4475655;31;20125;-93
2023/02/18 03:55:29;;;;;;;1.95;0.80;;;;;;;15.09;60.02;99898.53;4475547;31;20120;-91
2023/02/18 03:57:54;;;;;;;2.42;0.90;;;;;;;15.20;60.02;99875.28;4475536;31;20104;-92
2023/02/18 04:00:20;;;;;;;1.37;0.62;;;;;;;15.15;60.02;99886.94;4488516;31;20160;-91
2023/02/18 04:02:45;;;;;;;1.08;0.68;;;;;;;15.17;60.03;99883.31;4475485;31;20206;-89
2023/02/18 04:05:11;;;;;;;1.25;0.77;;;;;;;15.08;60.01;99896.84;4475592;31;20376;-91
2023/02/18 04:07:36;;;;;;;2.40;0.82;;;;;;;15.19;60.03;99891.09;4488966;31;20472;-89
2023/02/18 04:10:03;;;;;;;1.67;0.70;;;;;;;14.91;60.01;99902.91;4502318;31;20104;-90
2023/02/18 04:12:28;;;;;;;1.92;1.00;;;;;;;14.98;60.01;99898.22;4490423;31;20126;-92
2023/02/18 04:14:53;;;;;;;1.67;0.93;;;;;;;14.83;60.00;99910.25;4484293;31;20147;-90
2023/02/18 04:17:19;;;;;;;2.10;0.93;;;;;;;14.83;60.00;99906.78;4475387;31;20357;-89
2023/02/18 04:19:44;;;;;;;2.35;1.20;;;;;;;14.83;60.00;99927.75;4475113;31;20466;-90
2023/02/18 04:22:10;;;;;;;3.40;1.20;;;;;;;14.85;60.00;99910.19;4475577;31;20155;-91
2023/02/18 04:24:35;;;;;;;2.87;1.30;;;;;;;14.77;60.00;99915.78;4475285;31;20135;-92
2023/02/18 04:27:01;;;;;;;3.55;1.30;;;;;;;14.88;60.01;99920.53;4475079;31;20489;-90
2023/02/18 04:29:26;;;;;;;1.85;1.17;;;;;;;14.84;60.00;99916.34;4488102;31;20465;-90
2023/02/18 04:31:51;;;;;;;4.47;1.48;;;;;;;14.85;60.00;99923.28;4488596;31;20176;-91
2023/02/18 04:34:20;;;;;;;2.20;1.30;;;;;;;14.75;60.00;99925.50;4473926;31;20136;-94
2023/02/18 04:36:45;;;;;;;2.90;1.50;;;;;;;14.75;60.00;99922.88;4475834;31;20159;-93
2023/02/18 04:39:11;;;;;;;2.05;1.20;;;;;;;14.64;59.99;99909.41;4475023;31;20379;-91
2023/02/18 04:41:36;;;;;;;3.40;1.50;;;;;;;14.66;59.99;99912.81;4488795;31;20368;-91
2023/02/18 04:44:02;;;;;;;3.35;1.70;;;;;;;14.77;60.00;99928.91;4475551;31;20503;-92
2023/02/18 04:46:27;;;;;;;2.87;1.33;;;;;;;14.70;60.00;99923.09;4475140;31;20116;-90
2023/02/18 04:48:53;;;;;;;3.37;1.77;;;;;;;14.81;60.00;99935.69;4475248;31;20497;-92
2023/02/18 04:51:18;;;;;;;2.55;1.50;;;;;;;14.61;59.99;99936.59;4474389;31;20100;-91
2023/02/18 04:53:44;;;;;;;3.28;1.80;;;;;;;14.67;60.00;99940.75;4475389;31;20100;-90
2023/02/18 04:56:10;;;;;;;7.50;1.70;;;;;;;14.69;59.99;99938.91;4487829;31;20139;-89
2023/02/18 04:58:35;;;;;;;2.97;1.80;;;;;;;14.77;60.00;99921.03;4474909;31;20236;-92
2023/02/18 05:01:01;;;;;;;4.35;1.95;;;;;;;14.80;60.01;99925.28;4488030;31;20136;-89
2023/02/18 05:03:27;;;;;;;3.00;1.92;;;;;;;14.67;59.99;99935.50;4502647;31;20459;-90
2023/02/18 05:05:52;;;;;;;4.62;1.95;;;;;;;14.60;59.99;99923.56;4474983;31;20138;-90
2023/02/18 05:08:18;;;;;;;4.37;2.12;;;;;;;14.35;59.98;99939.50;4488171;31;20143;-90
2023/02/18 05:10:43;;;;;;;3.50;1.85;;;;;;;14.43;59.98;99938.31;4489134;31;20173;-90
2023/02/18 05:13:09;;;;;;;4.20;1.92;;;;;;;14.49;59.99;99954.66;4475624;31;20136;-92
2023/02/18 05:15:34;;;;;;;4.15;2.05;;;;;;;14.46;59.98;99963.50;4488122;31;20108;-90
2023/02/18 05:18:00;;;;;;;4.12;1.60;;;;;;;14.43;59.98;99964.50;4475240;31;20141;-93
2023/02/18 05:20:25;;;;;;;2.95;1.33;;;;;;;14.52;59.99;99957.13;4475251;31;20153;-92
2023/02/18 05:22:50;;;;;;;2.72;1.90;;;;;;;14.51;59.99;99971.16;4475850;31;20108;-95
2023/02/18 05:25:16;;;;;;;3.50;1.70;;;;;;;14.44;59.98;99962.72;4476124;31;20179;-91
2023/02/18 05:27:41;;;;;;;5.43;1.77;;;;;;;14.49;59.99;99973.00;4488809;31;20176;-92
2023/02/18 05:30:07;;;;;;;3.87;2.10;;;;;;;14.37;59.98;99976.97;4476076;31;20135;-90
2023/02/18 05:32:33;;;;;;;4.37;1.80;;;;;;;14.31;59.97;99982.47;4488845;31;20111;-89
2023/02/18 05:34:58;;;;;;;3.95;1.37;;;;;;;14.46;59.98;99994.09;4510144;31;20135;-88
2023/02/18 05:37:23;;;;;;;2.35;1.48;;;;;;;14.43;59.98;99997.66;4490214;31;20121;-91
2023/02/18 05:39:49;;;;;;;4.68;1.45;;;;;;;14.50;59.98;100004.34;4487430;31;20092;-88
2023/02/18 05:42:14;;;;;;;3.25;1.60;;;;;;;14.66;60.00;100013.22;4486857;31;20083;-88
2023/02/18 05:44:40;;;;;;;3.03;1.45;;;;;;;14.73;60.00;100008.56;4473777;31;20460;-86
2023/02/18 05:47:07;;;;;;;3.28;1.42;;;;;;;14.70;60.00;100014.81;4486963;31;20123;-89
2023/02/18 05:49:33;;;;;;;4.22;1.90;;;;;;;14.89;60.01;100013.94;4474038;31;20460;-89
2023/02/18 05:51:58;;;;;;;3.03;1.52;;;;;;;14.85;60.00;100007.16;4474142;31;20111;-88
2023/02/18 05:54:24;;;;;;;3.75;1.30;;;;;;;14.83;60.00;100022.94;4473837;31;20107;-88
2023/02/18 05:56:49;;;;;;;1.75;1.17;;;;;;;14.68;59.99;100027.13;4487003;31;20095;-91
2023/02/18 05:59:15;;;;;;;1.12;0.80;;;;;;;14.40;59.99;100030.03;4473684;31;20156;-89
2023/02/18 06:01:40;;;;;;;2.85;0.90;;;;;;;14.35;59.98;100050.34;4487772;31;20088;-90
2023/02/18 06:04:06;;;;;;;0.82;0.65;;;;;;;14.14;59.97;100057.34;4475654;31;20202;-88
2023/02/18 06:06:31;;;;;;;1.00;0.60;;;;;;;14.10;59.96;100045.28;4503075;31;20148;-89
2023/02/18 06:08:56;;;;;;;0.70;0.50;;;;;;;14.03;59.96;100043.84;4489137;31;20143;-89
2023/02/18 06:11:22;;;;;;;0.95;0.50;;;;;;;13.83;59.95;100063.00;4476015;31;20080;-88
2023/02/18 06:13:47;;;;;;;2.10;0.60;;;;;;;13.71;59.94;100066.06;4489136;31;20144;-87
2023/02/18 06:16:13;;;;;;;3.37;0.50;;;;;;;13.67;59.94;100046.19;4501886;31;20091;-88
2023/02/18 06:18:38;;;;;;;0.82;0.60;;;;;;;13.66;59.94;100057.56;4488543;31;20079;-89
2023/02/18 06:21:04;;;;;;;1.00;0.60;;;;;;;13.67;59.94;100058.41;4501810;31;20168;-92
2023/02/18 06:23:29;;;;;;;1.20;0.62;;;;;;;13.46;59.93;100055.72;4488890;31;20100;-89
2023/02/18 06:25:55;;;;;;;0.93;0.50;;;;;;;13.42;59.93;100058.53;4501713;31;20136;-90
2023/02/18 06:28:20;;;;;;;1.02;0.47;;;;;;;13.36;59.93;100066.63;4488630;31;20151;-89
2023/02/18 06:30:45;;;;;;;1.45;0.40;;;;;;;13.42;59.93;100069.00;4475598;31;20186;-89
2023/02/18 06:33:11;;;;;;;1.02;0.45;;;;;;;13.46;59.93;100081.88;4475914;31;20189;-90
2023/02/18 06:35:36;;;;;;;0.28;0.20;;;;;;;13.53;59.93;100079.91;4475417;31;20104;-89
2023/02/18 06:38:02;;;;;;;0.60;0.40;;;;;;;13.47;59.92;100086.19;4488762;31;20092;-89
2023/02/18 06:40:27;;;;;;;0.65;0.47;;;;;;;13.57;59.94;100073.63;4488949;31;20092;-90
2023/02/18 06:42:53;;;;;;;2.40;0.37;;;;;;;13.64;59.94;100075.09;4488836;31;20108;-90
2023/02/18 06:45:18;;;;;;;0.60;0.50;;;;;;;13.76;59.95;100081.63;4488935;31;20092;-91
2023/02/18 06:47:44;;;;;;;0.62;0.40;;;;;;;13.72;59.95;100077.41;4501878;31;20114;-92
2023/02/18 06:50:09;;;;;;;0.32;0.30;;;;;;;13.91;59.95;100086.22;4489594;31;20124;-90
2023/02/18 06:52:36;;;;;;;0.80;0.43;;;;;;;13.87;59.94;100084.66;4476767;31;20449;-90
2023/02/18 06:55:06;;;;;;;1.08;0.52;;;;;;;13.88;59.96;100080.25;4491346;31;20095;-91
2023/02/18 06:57:32;;;;;;;1.50;0.57;;;;;;;13.84;59.95;100084.78;4500060;31;20092;-90
2023/02/18 06:59:58;;;;;;;0.77;0.52;;;;;;;14.00;59.95;100085.00;4475891;31;20139;-89
2023/02/18 07:02:23;;;;;;;3.42;0.70;;;;;;;14.00;59.95;100082.41;4502545;31;20104;-89
2023/02/18 07:04:48;;;;;;;0.90;0.55;;;;;;;14.07;59.96;100086.47;4488272;31;20187;-89
2023/02/18 07:07:14;;;;;;;1.73;0.73;;;;;;;14.05;59.96;100088.28;4488417;31;20094;-90
2023/02/18 07:09:39;;;;;;;1.05;0.73;;;;;;;14.06;59.96;100084.75;4488288;31;20164;-89
2023/02/18 07:12:05;;;;;;;1.42;0.70;;;;;;;14.11;59.96;100083.66;4488217;31;20153;-89
2023/02/18 07:14:30;;;;;;;2.03;0.98;;;;;;;14.24;59.96;100070.06;4487747;31;20128;-88
2023/02/18 07:16:56;;;;;;;1.40;1.00;;;;;;;14.01;59.95;100089.34;4488439;31;20171;-93
2023/02/18 07:19:22;;;;;;;2.70;1.27;;;;;;;13.96;59.96;100071.22;4475664;31;20118;-92
2023/02/18 07:21:47;;;;;;;1.17;0.80;;;;;;;13.90;59.95;100075.81;4475483;31;20116;-90
2023/02/18 07:24:13;;;;;;;3.72;1.00;;;;;;;14.02;59.95;100080.56;4488748;31;20163;-91
2023/02/18 07:26:38;;;;;;;1.42;0.90;;;;;;;14.11;59.96;100085.41;4475895;31;20159;-91
2023/02/18 07:29:03;;;;;;;2.70;0.90;;;;;;;14.10;59.97;100091.56;4475465;31;20092;-91
2023/02/18 07:31:29;;;;;;;2.28;1.17;;;;;;;14.13;59.96;100091.44;4475248;31;20138;-91
2023/02/18 07:33:55;;;;;;;6.87;2.20;;;;;;;14.16;59.96;100077.37;4475016;31;20407;-89
2023/02/18 07:36:20;;;;;;;2.62;1.50;;;;;;;14.42;59.98;100088.44;4475127;31;20156;-90
2023/02/18 07:38:46;;;;;;;1.65;1.10;;;;;;;14.36;59.97;100080.84;4501287;31;20123;-90
2023/02/18 07:41:16;;;;;;;1.65;1.10;;;;;;;14.37;59.97;100081.72;4475239;31;20138;-90
2023/02/18 07:43:41;;;;;;;1.55;0.90;;;;;;;14.59;59.99;100085.16;4475287;31;20107;-90
2023/02/18 07:46:06;;;;;;;1.30;0.90;;;;;;;14.80;60.00;100074.66;4487815;31;20173;-91
2023/02/18 07:48:32;;;;;;;0.93;0.82;;;;;;;14.88;60.00;100080.41;4488095;31;20166;-91
2023/02/18 07:50:57;;;;;;;1.73;0.80;;;;;;;14.86;60.00;100072.59;4474720;31;20719;-91
2023/02/18 07:53:23;;;;;;;1.62;0.90;;;;;;;15.09;60.02;100068.97;4475018;31;20118;-90
2023/02/18 07:55:48;;;;;;;3.67;1.42;;;;;;;15.18;60.02;100072.94;4487809;31;20393;-90
2023/02/18 07:58:17;;;;;;;0.80;0.68;;;;;;;15.13;60.01;100083.63;4474669;31;20163;-89
2023/02/18 08:00:43;;;;;;;1.25;0.68;;;;;;;15.03;60.01;100084.97;4475444;31;20126;-89
2023/02/18 08:03:08;;;;;;;1.75;0.98;;;;;;;15.04;60.01;100086.66;4487969;31;20103;-89
2023/02/18 08:05:34;;;;;;;1.23;1.02;;;;;;;15.14;60.01;100085.34;4474984;31;20104;-89
2023/02/18 08:07:59;;;;;;;2.53;0.90;;;;;;;15.25;60.03;100079.59;4475648;31;20114;-90
2023/02/18 08:10:25;;;;;;;1.08;0.90;;;;;;;15.29;60.02;100073.28;4501478;31;20436;-90
2023/02/18 08:12:50;;;;;;;2.20;0.90;;;;;;;15.44;60.03;100077.84;4488025;31;20104;-88
2023/02/18 08:15:16;;;;;;;1.45;0.80;;;;;;;15.53;60.04;100074.78;4487702;31;20128;-88
2023/02/18 08:17:41;;;;;;;1.10;0.70;;;;;;;15.69;60.04;100074.94;4489565;31;20087;-89
2023/02/18 08:20:07;;;;;;;1.30;0.60;;;;;;;15.38;60.03;100079.88;4502242;31;20342;-88
2023/02/18 08:22:33;;;;;;;2.37;0.90;;;;;;;15.46;60.03;100078.63;4487768;31;20123;-88
2023/02/18 08:24:59;;;;;;;1.08;0.70;;;;;;;15.46;60.02;100077.75;4486514;31;20101;-90
2023/02/18 08:27:25;;;;;;;0.80;0.50;;;;;;;15.34;60.03;100073.91;4500921;31;20096;-88
2023/02/18 08:29:50;;;;;;;1.25;0.80;;;;;;;15.22;60.02;100085.00;4487559;31;20349;-88
2023/02/18 08:32:15;;;;;;;1.65;0.68;;;;;;;15.21;60.02;100072.81;4500909;31;20456;-89
2023/02/18 08:34:41;;;;;;;1.37;0.80;;;;;;;15.31;60.02;100074.06;4473998;31;20132;-88
2023/02/18 08:37:06;;;;;;;0.70;0.68;;;;;;;15.46;60.03;100078.63;4487676;31;20151;-89
2023/02/18 08:39:35;;;;;;;4.15;0.90;;;;;;;15.45;60.03;100068.19;4487557;31;20167;-88
2023/02/18 08:42:01;;;;;;;1.12;0.60;;;;;;;15.64;60.05;100079.56;4487759;31;20103;-89
2023/02/18 08:44:26;;;;;;;1.95;0.77;;;;;;;15.79;60.05;100084.06;4474708;31;20158;-89
2023/02/18 08:46:52;;;;;;;6.37;1.00;;;;;;;15.92;60.05;100071.19;4487843;31;20112;-90
2023/02/18 08:49:19;;;;;;;2.35;0.85;;;;;;;16.20;60.08;100078.56;4474585;31;20146;-88
2023/02/18 08:51:45;;;;;;;1.25;0.68;;;;;;;16.18;60.07;100065.50;4475198;31;20135;-89
2023/02/18 08:54:11;;;;;;;0.70;0.50;;;;;;;16.25;60.08;100059.00;4487960;31;20148;-89
2023/02/18 08:56:36;;;;;;;1.10;0.65;;;;;;;16.18;60.07;100048.91;4500903;31;20087;-90
2023/02/18 08:59:02;;;;;;;5.28;0.80;;;;;;;16.31;60.08;100049.12;4487810;31;20543;-89
2023/02/18 09:01:27;;;;;;;1.45;0.80;;;;;;;16.35;60.08;100048.06;4474337;31;20440;-89
2023/02/18 09:03:53;;;;;;;2.70;0.90;;;;;;;16.35;60.08;100054.16;4459794;31;20100;-89
2023/02/18 09:06:18;;;;;;;2.20;0.93;;;;;;;16.26;60.08;100057.25;4474396;32;20109;-88
2023/02/18 09:08:43;;;;;;;3.50;0.90;;;;;;;16.16;60.06;100050.75;4479054;31;20171;-90
2023/02/18 09:11:09;;;;;;;0.62;0.50;;;;;;;16.31;60.07;100057.00;4459968;32;20151;-89
2023/02/18 09:13:35;;;;;;;2.42;0.70;;;;;;;16.41;60.09;100050.37;4470657;31;20096;-90
2023/02/18 09:16:05;;;;;;;1.42;0.70;;;;;;;16.39;60.08;100052.22;4457554;32;20122;-88
2023/02/18 09:18:31;;;;;;;1.92;0.50;;;;;;;16.24;60.08;100049.44;4481658;31;20139;-90
2023/02/18 09:20:59;;;;;;;0.45;0.40;;;;;;;16.29;60.07;100046.56;4484757;32;20123;-91
2023/02/18 09:23:26;;;;;;;2.35;0.57;;;;;;;16.16;60.08;100051.63;4484082;32;20092;-89
2023/02/18 09:25:51;;;;;;;1.00;0.70;;;;;;;16.54;60.09;100040.91;4470989;32;20092;-89
2023/02/18 09:28:16;;;;;;;2.35;0.60;;;;;;;16.49;60.09;100033.28;4457951;32;20464;-89
2023/02/18 09:30:42;;;;;;;1.40;0.55;;;;;;;16.69;60.09;100032.28;4473674;31;20115;-89
2023/02/18 09:33:10;;;;;;;2.42;0.50;;;;;;;16.67;60.09;100039.38;4486309;31;20126;-89
2023/02/18 09:35:43;;;;;;;1.60;1.33;;;;;;;16.84;60.11;100033.25;4484821;31;20080;-91
2023/02/18 09:38:09;;;;;;;1.00;0.57;;;;;;;16.88;60.11;100042.66;4486958;31;20567;-90
2023/02/18 09:40:34;;;;;;;0.50;0.37;;;;;;;16.86;60.11;100040.13;4489331;32;20099;-89
2023/02/18 09:43:00;;;;;;;1.48;0.88;;;;;;;17.11;60.13;100033.53;4484025;32;20111;-89
2023/02/18 09:45:26;;;;;;;5.43;2.00;;;;;;;17.28;60.13;100040.53;4467971;32;135058;-90
2023/02/18 09:47:51;;;;;;;4.18;1.50;;;;;;;17.40;60.14;100032.78;4477276;31;20103;-91
2023/02/18 09:50:24;;;;;;;3.62;1.80;;;;;;;17.22;60.13;100030.31;4463260;32;20155;-90
2023/02/18 09:52:51;;;;;;;1.50;0.50;;;;;;;17.17;60.13;100034.03;4471633;32;20586;-90
2023/02/18 09:55:27;;;;;;;2.35;1.05;;;;;;;17.52;60.14;100036.53;4486289;32;20127;-91
2023/02/18 09:57:54;;;;;;;3.40;0.70;;;;;;;17.37;60.13;100032.97;4460510;32;20561;-90
2023/02/18 10:00:39;;;;;;;1.50;1.10;;;;;;;17.42;60.14;100024.81;4473149;32;20171;-88
2023/02/18 10:03:13;;;;;;;2.45;0.65;;;;;;;17.24;60.13;100029.28;4472046;32;20092;-89
2023/02/18 10:05:47;;;;;;;3.92;0.60;;;;;;;17.31;60.12;100033.31;4472625;32;20115;-90
2023/02/18 10:08:19;;;;;;;0.90;0.50;;;;;;;17.42;60.14;100027.44;4472783;32;20137;-90
2023/02/18 10:10:45;;;;;;;1.75;0.55;;;;;;;17.39;60.14;100020.56;4471811;32;20104;-89
2023/02/18 10:13:18;;;;;;;0.98;0.50;;;;;;;17.55;60.15;100017.09;4458954;32;20105;-89
2023/02/18 10:15:44;;;;;;;1.00;0.80;;;;;;;17.70;60.15;100016.22;4484147;32;20454;-89
2023/02/18 10:18:21;;;;;;;2.00;0.82;;;;;;;17.81;60.16;100005.09;4484444;32;20092;-91
2023/02/18 10:20:46;;;;;;;13.38;7.75;;;;;;;17.93;60.17;100012.25;4471278;32;20108;-89
2023/02/18 10:23:12;;;;;;;3.45;2.92;;;;;;;18.02;60.17;100006.47;4470961;32;20088;-88
2023/02/18 10:25:38;;;;;;;19.83;15.68;;;;;;;18.07;60.18;100013.16;4471328;32;20376;-90
2023/02/18 10:28:03;;;;;;;20.23;15.25;;;;;;;18.25;60.19;100015.66;4459281;32;20108;-90
2023/02/18 10:30:40;;;;;;;1.40;1.05;;;;;;;18.13;60.18;100024.28;4458545;32;20118;-90
2023/02/18 10:33:18;;;;;;;5.18;1.90;;;;;;;17.81;60.16;100021.75;4472058;32;20077;-91
2023/02/18 10:36:01;;;;;;;27.92;14.25;;;;;;;17.74;60.16;100010.72;4485603;31;20495;-90
2023/02/18 10:38:56;;;;;;;47.22;21.90;;;;;;;17.49;60.15;100007.72;4458557;32;20069;-90
2023/02/18 10:41:28;;;;;;;1.92;1.10;;;;;;;17.62;60.16;100014.00;4485188;32;20470;-90
2023/02/18 10:43:56;;;;;;;1.58;1.00;;;;;;;17.81;60.16;100003.31;4471580;32;20088;-90
2023/02/18 10:46:52;;;;;;;2.65;1.05;;;;;;;17.95;60.17;99998.06;4483887;31;20100;-91
2023/02/18 10:49:39;;;;;;;3.05;1.00;;;;;;;17.93;60.17;99992.03;4488230;31;20184;-90
2023/02/18 10:52:04;;;;;;;9.07;2.80;;;;;;;18.12;60.18;99993.59;4485232;31;20095;-90
2023/02/18 10:54:48;;;;;;;5.53;3.50;;;;;;;18.29;60.18;99982.91;4458989;32;20759;-88
2023/02/18 10:57:19;;;;;;;12.60;5.03;;;;;;;18.35;60.18;99982.53;4487233;31;20084;-90
2023/02/18 11:00:09;;;;;;;4.35;2.05;;;;;;;18.65;60.20;99975.41;4470419;31;20108;-89
2023/02/18 11:02:35;;;;;;;2.97;1.37;;;;;;;18.76;60.21;99971.28;4485691;31;20099;-90
2023/02/18 11:05:05;;;;;;;10.52;2.53;;;;;;;18.77;60.22;99965.94;4473947;31;20451;-89
2023/02/18 11:07:31;;;;;;;;;;;;;;;18.66;60.20;99961.28;4485284;32;20425;-91
2023/02/18 11:10:31;;;;;;;6.80;2.50;;;;;;;18.58;60.20;99967.97;4482407;31;19991;-89
2023/02/18 11:13:01;;;;;;;2.75;1.17;;;;;;;18.30;60.18;99968.81;4440507;31;20138;-88
2023/02/18 11:15:27;;;;;;;4.72;1.80;;;;;;;17.96;60.17;99973.44;4474649;32;20656;-90
2023/02/18 11:17:58;;;;;;;4.30;1.42;;;;;;;17.77;60.16;99959.66;4471908;31;20134;-89
2023/02/18 11:20:34;;;;;;;3.75;1.42;;;;;;;17.84;60.17;99947.81;4472577;31;20112;-89
2023/02/18 11:23:05;;;;;;;1.65;1.20;;;;;;;18.00;60.18;99948.63;4471352;31;20480;-91
2023/02/18 11:25:36;;;;;;;1.90;1.10;;;;;;;18.07;60.18;99944.69;4486634;31;20879;-89
2023/02/18 11:28:02;;;;;;;1.73;0.90;;;;;;;18.52;60.19;99937.56;4471539;32;20438;-90
2023/02/18 11:30:35;;;;;;;2.62;0.60;;;;;;;18.66;60.21;99940.19;4483948;32;20100;-90
2023/02/18 11:33:20;;;;;;;1.55;0.70;;;;;;;18.70;60.22;99920.62;4484328;32;20120;-89
2023/02/18 11:35:50;;;;;;;1.30;0.90;;;;;;;18.97;60.22;99911.91;4484377;32;20119;-90